| time (UTC) | temp F | wind direction | speed MPH | gust MPH | rain 1hr in | rain 24hr in | rain mn in | humidity % | barometer mb |
| 20260904061537 | 60 | 263 | 1.0 | 6.0 | 0.00 | 0.00 | 0.00 | 87 | 1015.9 |
| 20260904060029 | 60 | 234 | 0.0 | 2.0 | 0.00 | 0.00 | 0.00 | 87 | 1015.9 |
| 20260904054528 | 61 | 233 | 0.0 | 5.0 | 0.00 | 0.00 | 0.00 | 86 | 1016.0 |
| 20260904053022 | 60 | 248 | 3.0 | 5.0 | 0.00 | 0.00 | 0.00 | 87 | 1016.3 |
| 20260904051520 | 61 | 207 | 1.0 | 9.0 | 0.00 | 0.00 | 0.00 | 87 | 1016.5 |
| 20260904050016 | 61 | 207 | 2.0 | 7.0 | 0.00 | 0.00 | 0.00 | 87 | 1016.6 |
| 20260904044513 | 61 | 219 | 4.0 | 8.0 | 0.00 | 0.00 | 0.00 | 87 | 1016.7 |
| 20260904043015 | 60 | 221 | 4.0 | 8.0 | 0.00 | 0.00 | 0.00 | 89 | 1016.8 |
| 20260904041507 | 60 | 233 | 0.0 | 2.0 | 0.00 | 0.00 | 0.00 | 89 | 1016.7 |
| 20260904040005 | 60 | 232 | 2.0 | 4.0 | 0.00 | 0.00 | 0.00 | 89 | 1017.0 |
| 20260904034504 | 60 | 229 | 0.0 | 2.0 | 0.00 | 0.00 | 0.00 | 89 | 1017.1 |
| 20260904033104 | 60 | 229 | 0.0 | 2.0 | 0.00 | 0.00 | 0.00 | 88 | 1017.1 |
| 20260904031557 | 60 | 229 | 0.0 | 2.0 | 0.00 | 0.00 | 0.00 | 88 | 1017.1 |
| 20260904030054 | 61 | 229 | 1.0 | 2.0 | 0.00 | 0.00 | 0.00 | 87 | 1017.3 |
| 20260904024550 | 61 | 225 | 1.0 | 6.0 | 0.00 | 0.00 | 0.00 | 86 | 1017.5 |
| 20260904023051 | 61 | 230 | 2.0 | 7.0 | 0.00 | 0.00 | 0.00 | 86 | 1017.5 |
| 20260904021545 | 61 | 244 | 4.0 | 6.0 | 0.00 | 0.00 | 0.00 | 86 | 1017.5 |
| 20260904020045 | 61 | 257 | 4.0 | 6.0 | 0.00 | 0.00 | 0.00 | 86 | 1017.7 |
| 20260904014605 | 61 | 228 | 5.0 | 9.0 | 0.00 | 0.00 | 0.00 | 87 | 1017.9 |
| 20260904013042 | 61 | 224 | 3.0 | 6.0 | 0.00 | 0.00 | 0.00 | 86 | 1017.9 |
| 20260904011535 | 61 | 192 | 1.0 | 8.0 | 0.00 | 0.00 | 0.00 | 86 | 1018.1 |
| 20260904010034 | 61 | 243 | 4.0 | 8.0 | 0.00 | 0.00 | 0.00 | 86 | 1018.1 |
| 20260904004534 | 61 | 238 | 3.0 | 6.0 | 0.00 | 0.00 | 0.00 | 86 | 1018.2 |
| 20260904003028 | 61 | 232 | 2.0 | 4.0 | 0.00 | 0.00 | 0.00 | 86 | 1018.3 |
| 20260904001528 | 61 | 223 | 4.0 | 10.0 | 0.00 | 0.00 | 0.00 | 86 | 1018.3 |
| 20260904000024 | 62 | 227 | 4.0 | 9.0 | 0.00 | 0.00 | 0.00 | 86 | 1018.4 |
| 20260903234521 | 61 | 219 | 3.0 | 6.0 | 0.00 | 0.00 | 0.00 | 86 | 1018.5 |
| 20260903233020 | 61 | 219 | 2.0 | 8.0 | 0.00 | 0.00 | 0.00 | 86 | 1018.6 |
| 20260903231518 | 61 | 217 | 2.0 | 11.0 | 0.00 | 0.00 | 0.00 | 85 | 1018.6 |
| 20260903230015 | 62 | 216 | 3.0 | 8.0 | 0.00 | 0.00 | 0.00 | 85 | 1018.6 |
| 20260903224515 | 62 | 234 | 3.0 | 6.0 | 0.00 | 0.00 | 0.00 | 84 | 1018.6 |
| 20260903223011 | 63 | 206 | 2.0 | 6.0 | 0.00 | 0.00 | 0.00 | 83 | 1018.6 |
| 20260903221509 | 63 | 202 | 3.0 | 5.0 | 0.00 | 0.00 | 0.00 | 82 | 1018.8 |
| 20260903220008 | 64 | 207 | 0.0 | 6.0 | 0.00 | 0.00 | 0.00 | 82 | 1019.0 |
| 20260903214506 | 64 | 213 | 1.0 | 5.0 | 0.00 | 0.00 | 0.00 | 81 | 1018.9 |
| 20260903213004 | 64 | 220 | 5.0 | 9.0 | 0.00 | 0.00 | 0.00 | 79 | 1018.8 |
| 20260903211501 | 65 | 192 | 4.0 | 12.0 | 0.00 | 0.00 | 0.00 | 77 | 1018.8 |
| 20260903204559 | 67 | 228 | 5.0 | 10.0 | 0.00 | 0.00 | 0.00 | 73 | 1018.6 |
| 20260903203106 | 69 | 267 | 3.0 | 7.0 | 0.00 | 0.00 | 0.00 | 72 | 1018.8 |
| 20260903201553 | 69 | 174 | 5.0 | 13.0 | 0.00 | 0.00 | 0.00 | 70 | 1018.8 |
| 20260903200051 | 69 | 215 | 5.0 | 10.0 | 0.00 | 0.00 | 0.00 | 71 | 1018.8 |
| 20260903194549 | 67 | 253 | 5.0 | 14.0 | 0.00 | 0.00 | 0.00 | 74 | 1019.0 |
| 20260903193047 | 67 | 229 | 8.0 | 12.0 | 0.00 | 0.00 | 0.00 | 72 | 1019.2 |
| 20260903191542 | 68 | 223 | 8.0 | 16.0 | 0.00 | 0.00 | 0.00 | 73 | 1019.3 |
| 20260903190041 | 68 | 206 | 5.0 | 9.0 | 0.00 | 0.00 | 0.00 | 74 | 1019.2 |
| 20260903184538 | 69 | 218 | 7.0 | 12.0 | 0.00 | 0.00 | 0.00 | 72 | 1019.4 |
| 20260903183035 | 69 | 237 | 7.0 | 11.0 | 0.00 | 0.00 | 0.00 | 70 | 1019.5 |
| 20260903181532 | 70 | 173 | 5.0 | 11.0 | 0.00 | 0.00 | 0.00 | 71 | 1019.5 |
| 20260903180035 | 69 | 254 | 5.0 | 10.0 | 0.00 | 0.00 | 0.00 | 71 | 1019.6 |
| 20260903174525 | 71 | 215 | 6.0 | 12.0 | 0.00 | 0.00 | 0.00 | 67 | 1019.7 |
| 20260903173020 | 69 | 186 | 4.0 | 9.0 | 0.00 | 0.00 | 0.00 | 69 | 1019.8 |
| 20260903171526 | 69 | 173 | 5.0 | 8.0 | 0.00 | 0.00 | 0.00 | 70 | 1019.9 |
| 20260903170031 | 69 | 250 | 5.0 | 9.0 | 0.00 | 0.00 | 0.00 | 71 | 1019.9 |
| 20260903164509 | 69 | 249 | 2.0 | 9.0 | 0.00 | 0.00 | 0.00 | 73 | 1020.1 |
| 20260903163106 | 68 | 205 | 4.0 | 9.0 | 0.00 | 0.00 | 0.00 | 72 | 1020.5 |
| 20260903161503 | 68 | 224 | 7.0 | 12.0 | 0.00 | 0.00 | 0.00 | 71 | 1020.6 |
| 20260903160004 | 68 | 266 | 4.0 | 7.0 | 0.00 | 0.00 | 0.00 | 73 | 1020.6 |
| 20260903154600 | 67 | 211 | 4.0 | 7.0 | 0.00 | 0.00 | 0.00 | 74 | 1020.7 |
| 20260903154502 | 67 | 213 | 4.0 | 7.0 | 0.00 | 0.00 | 0.00 | 74 | 1020.7 |
| 20260903153058 | 67 | 213 | 5.0 | 10.0 | 0.00 | 0.00 | 0.00 | 74 | 1020.7 |
| 20260903151557 | 68 | 228 | 5.0 | 9.0 | 0.00 | 0.00 | 0.00 | 74 | 1020.8 |
| 20260903150108 | 69 | 185 | 4.0 | 8.0 | 0.00 | 0.00 | 0.00 | 73 | 1020.8 |
| 20260903144550 | 68 | 238 | 6.0 | 10.0 | 0.00 | 0.00 | 0.00 | 72 | 1020.8 |
| 20260903143045 | 68 | 182 | 4.0 | 8.0 | 0.00 | 0.00 | 0.00 | 74 | 1021.0 |
| 20260903141541 | 67 | 188 | 5.0 | 9.0 | 0.00 | 0.00 | 0.00 | 77 | 1021.1 |
| 20260903140040 | 66 | 223 | 3.0 | 10.0 | 0.00 | 0.00 | 0.00 | 81 | 1021.3 |
| 20260903134529 | 65 | 190 | 6.0 | 8.0 | 0.00 | 0.00 | 0.00 | 82 | 1021.3 |
| 20260903133025 | 64 | 223 | 5.0 | 10.0 | 0.00 | 0.00 | 0.00 | 83 | 1021.5 |
| 20260903131525 | 62 | 224 | 4.0 | 7.0 | 0.00 | 0.00 | 0.00 | 85 | 1021.5 |
| 20260903130017 | 61 | 222 | 3.0 | 7.0 | 0.00 | 0.00 | 0.00 | 86 | 1021.4 |
| 20260903124514 | 60 | 187 | 3.0 | 7.0 | 0.00 | 0.00 | 0.00 | 88 | 1021.6 |
| 20260903123006 | 57 | 56 | 1.0 | 3.0 | 0.00 | 0.00 | 0.00 | 90 | 1021.7 |
| 20260903121500 | 55 | 56 | 1.0 | 2.0 | 0.00 | 0.00 | 0.00 | 91 | 1021.7 |
| 20260903120109 | 55 | 56 | 1.0 | 3.0 | 0.00 | 0.00 | 0.00 | 92 | 1021.9 |
| 20260903114554 | 54 | 60 | 0.0 | 2.0 | 0.00 | 0.00 | 0.00 | 93 | 1021.9 |
| 20260903113053 | 53 | 60 | 0.0 | 2.0 | 0.00 | 0.00 | 0.00 | 94 | 1022.0 |
| 20260903111546 | 52 | 59 | 1.0 | 4.0 | 0.00 | 0.00 | 0.00 | 94 | 1022.1 |
| 20260903110044 | 50 | 132 | 0.0 | 3.0 | 0.00 | 0.00 | 0.00 | 94 | 1022.1 |
| 20260903104542 | 49 | 141 | 0.0 | 0.0 | 0.00 | 0.00 | 0.00 | 94 | 1022.0 |
| 20260903103040 | 48 | 141 | 0.0 | 0.0 | 0.00 | 0.00 | 0.00 | 94 | 1022.1 |
| 20260903101538 | 48 | 141 | 0.0 | 0.0 | 0.00 | 0.00 | 0.00 | 94 | 1022.1 |
| 20260903100038 | 47 | 141 | 0.0 | 0.0 | 0.00 | 0.00 | 0.00 | 94 | 1021.9 |
| 20260903094544 | 47 | 141 | 0.0 | 0.0 | 0.00 | 0.00 | 0.00 | 94 | 1022.0 |
| 20260903093034 | 47 | 141 | 0.0 | 0.0 | 0.00 | 0.00 | 0.00 | 93 | 1021.9 |
| 20260903091531 | 47 | 141 | 0.0 | 0.0 | 0.00 | 0.00 | 0.00 | 93 | 1022.0 |
| 20260903090029 | 47 | 141 | 0.0 | 0.0 | 0.00 | 0.00 | 0.00 | 94 | 1021.8 |
| 20260903084538 | 47 | 141 | 0.0 | 0.0 | 0.00 | 0.00 | 0.00 | 94 | 1022.0 |
| 20260903083025 | 47 | 141 | 0.0 | 0.0 | 0.00 | 0.00 | 0.00 | 93 | 1022.2 |
| 20260903081521 | 46 | 141 | 0.0 | 0.0 | 0.00 | 0.00 | 0.00 | 93 | 1022.2 |
| 20260903080019 | 45 | 141 | 0.0 | 0.0 | 0.00 | 0.00 | 0.00 | 93 | 1022.3 |
| 20260903074517 | 45 | 141 | 0.0 | 0.0 | 0.00 | 0.00 | 0.00 | 93 | 1022.3 |
| 20260903073016 | 46 | 141 | 0.0 | 0.0 | 0.00 | 0.00 | 0.00 | 93 | 1022.2 |
| 20260903071513 | 46 | 141 | 0.0 | 0.0 | 0.00 | 0.00 | 0.00 | 93 | 1022.3 |
| 20260903070011 | 46 | 141 | 0.0 | 0.0 | 0.00 | 0.00 | 0.00 | 93 | 1022.3 |
| 20260903064509 | 45 | 141 | 0.0 | 0.0 | 0.00 | 0.00 | 0.00 | 92 | 1022.4 |
| 20260903063009 | 46 | 141 | 0.0 | 0.0 | 0.00 | 0.00 | 0.00 | 92 | 1022.2 |